sensor_id;sensor_type;location;lat;lon;timestamp;P1;durP1;ratioP1;P2;durP2;ratioP2
76059;SDS011;64759;52.220;5.170;2023-04-05T00:01:07;16.33;;;6.10;;
76059;SDS011;64759;52.220;5.170;2023-04-05T00:03:33;10.40;;;5.35;;
76059;SDS011;64759;52.220;5.170;2023-04-05T00:05:59;9.43;;;5.43;;
76059;SDS011;64759;52.220;5.170;2023-04-05T00:08:26;11.65;;;5.70;;
76059;SDS011;64759;52.220;5.170;2023-04-05T00:10:52;14.82;;;5.45;;
76059;SDS011;64759;52.220;5.170;2023-04-05T00:13:18;11.40;;;6.53;;
76059;SDS011;64759;52.220;5.170;2023-04-05T00:15:45;14.13;;;6.95;;
76059;SDS011;64759;52.220;5.170;2023-04-05T00:18:11;9.38;;;5.93;;
76059;SDS011;64759;52.220;5.170;2023-04-05T00:20:46;10.82;;;5.97;;
76059;SDS011;64759;52.220;5.170;2023-04-05T00:23:15;10.98;;;5.15;;
76059;SDS011;64759;52.220;5.170;2023-04-05T00:25:45;12.00;;;7.10;;
76059;SDS011;64759;52.220;5.170;2023-04-05T00:28:11;12.20;;;6.00;;
76059;SDS011;64759;52.220;5.170;2023-04-05T00:30:37;11.60;;;6.32;;
76059;SDS011;64759;52.220;5.170;2023-04-05T00:33:03;18.83;;;6.35;;
76059;SDS011;64759;52.220;5.170;2023-04-05T00:35:28;12.10;;;5.80;;
76059;SDS011;64759;52.220;5.170;2023-04-05T00:37:54;11.38;;;6.00;;
76059;SDS011;64759;52.220;5.170;2023-04-05T00:40:21;12.63;;;6.60;;
76059;SDS011;64759;52.220;5.170;2023-04-05T00:42:47;14.07;;;6.50;;
76059;SDS011;64759;52.220;5.170;2023-04-05T00:45:12;14.07;;;6.13;;
76059;SDS011;64759;52.220;5.170;2023-04-05T00:47:38;10.43;;;6.68;;
76059;SDS011;64759;52.220;5.170;2023-04-05T00:50:05;17.25;;;6.50;;
76059;SDS011;64759;52.220;5.170;2023-04-05T00:52:32;12.02;;;6.05;;
76059;SDS011;64759;52.220;5.170;2023-04-05T00:54:59;11.15;;;5.53;;
76059;SDS011;64759;52.220;5.170;2023-04-05T00:57:25;12.40;;;6.13;;
76059;SDS011;64759;52.220;5.170;2023-04-05T00:59:52;12.25;;;5.97;;
76059;SDS011;64759;52.220;5.170;2023-04-05T01:02:20;8.75;;;5.50;;
76059;SDS011;64759;52.220;5.170;2023-04-05T01:04:58;10.57;;;5.90;;
76059;SDS011;64759;52.220;5.170;2023-04-05T01:10:50;10.90;;;5.82;;
76059;SDS011;64759;52.220;5.170;2023-04-05T01:13:19;10.32;;;6.35;;
76059;SDS011;64759;52.220;5.170;2023-04-05T01:15:44;13.88;;;6.90;;
76059;SDS011;64759;52.220;5.170;2023-04-05T01:18:11;13.40;;;6.43;;
76059;SDS011;64759;52.220;5.170;2023-04-05T01:20:41;9.90;;;6.45;;
76059;SDS011;64759;52.220;5.170;2023-04-05T01:23:11;10.02;;;5.53;;
76059;SDS011;64759;52.220;5.170;2023-04-05T01:31:41;11.70;;;6.68;;
76059;SDS011;64759;52.220;5.170;2023-04-05T01:36:59;15.05;;;7.10;;
76059;SDS011;64759;52.220;5.170;2023-04-05T01:39:27;12.30;;;6.07;;
76059;SDS011;64759;52.220;5.170;2023-04-05T01:41:58;14.05;;;6.90;;
76059;SDS011;64759;52.220;5.170;2023-04-05T01:44:25;13.40;;;6.47;;
76059;SDS011;64759;52.220;5.170;2023-04-05T01:46:53;9.40;;;6.00;;
76059;SDS011;64759;52.220;5.170;2023-04-05T01:49:19;13.88;;;6.93;;
76059;SDS011;64759;52.220;5.170;2023-04-05T01:51:45;18.35;;;7.40;;
76059;SDS011;64759;52.220;5.170;2023-04-05T01:54:10;12.43;;;7.00;;
76059;SDS011;64759;52.220;5.170;2023-04-05T01:56:36;12.77;;;7.28;;
76059;SDS011;64759;52.220;5.170;2023-04-05T01:59:02;14.93;;;7.97;;
76059;SDS011;64759;52.220;5.170;2023-04-05T02:01:29;10.73;;;6.63;;
76059;SDS011;64759;52.220;5.170;2023-04-05T02:03:55;13.73;;;6.80;;
76059;SDS011;64759;52.220;5.170;2023-04-05T02:06:24;14.38;;;7.43;;
76059;SDS011;64759;52.220;5.170;2023-04-05T02:08:50;13.68;;;7.00;;
76059;SDS011;64759;52.220;5.170;2023-04-05T02:11:16;15.07;;;6.97;;
76059;SDS011;64759;52.220;5.170;2023-04-05T02:13:41;10.38;;;6.55;;
76059;SDS011;64759;52.220;5.170;2023-04-05T02:16:07;13.05;;;6.75;;
76059;SDS011;64759;52.220;5.170;2023-04-05T02:18:33;12.82;;;7.63;;
76059;SDS011;64759;52.220;5.170;2023-04-05T02:21:02;10.23;;;6.55;;
76059;SDS011;64759;52.220;5.170;2023-04-05T02:23:30;10.73;;;6.47;;
76059;SDS011;64759;52.220;5.170;2023-04-05T02:25:56;11.10;;;7.05;;
76059;SDS011;64759;52.220;5.170;2023-04-05T02:28:23;12.55;;;7.65;;
76059;SDS011;64759;52.220;5.170;2023-04-05T02:30:52;14.48;;;7.45;;
76059;SDS011;64759;52.220;5.170;2023-04-05T02:33:18;19.20;;;7.55;;
76059;SDS011;64759;52.220;5.170;2023-04-05T02:35:43;13.48;;;7.35;;
76059;SDS011;64759;52.220;5.170;2023-04-05T02:38:09;13.95;;;6.68;;
76059;SDS011;64759;52.220;5.170;2023-04-05T02:40:34;15.82;;;8.63;;
76059;SDS011;64759;52.220;5.170;2023-04-05T02:43:00;16.67;;;7.15;;
76059;SDS011;64759;52.220;5.170;2023-04-05T02:45:26;19.30;;;8.10;;
76059;SDS011;64759;52.220;5.170;2023-04-05T02:47:54;14.25;;;7.68;;
76059;SDS011;64759;52.220;5.170;2023-04-05T02:50:20;13.38;;;7.13;;
76059;SDS011;64759;52.220;5.170;2023-04-05T02:52:48;12.02;;;7.38;;
76059;SDS011;64759;52.220;5.170;2023-04-05T02:55:14;20.42;;;7.43;;
76059;SDS011;64759;52.220;5.170;2023-04-05T02:57:42;13.18;;;7.63;;
76059;SDS011;64759;52.220;5.170;2023-04-05T03:00:21;16.13;;;7.85;;
76059;SDS011;64759;52.220;5.170;2023-04-05T03:02:46;14.55;;;7.63;;
76059;SDS011;64759;52.220;5.170;2023-04-05T03:05:13;13.18;;;7.93;;
76059;SDS011;64759;52.220;5.170;2023-04-05T03:07:45;21.63;;;8.65;;
76059;SDS011;64759;52.220;5.170;2023-04-05T03:10:15;12.43;;;8.25;;
76059;SDS011;64759;52.220;5.170;2023-04-05T03:12:45;16.47;;;8.00;;
76059;SDS011;64759;52.220;5.170;2023-04-05T03:15:10;13.85;;;7.93;;
76059;SDS011;64759;52.220;5.170;2023-04-05T03:17:39;14.32;;;8.88;;
76059;SDS011;64759;52.220;5.170;2023-04-05T03:20:09;17.33;;;8.20;;
76059;SDS011;64759;52.220;5.170;2023-04-05T03:22:36;13.98;;;8.38;;
76059;SDS011;64759;52.220;5.170;2023-04-05T03:25:04;16.25;;;8.45;;
76059;SDS011;64759;52.220;5.170;2023-04-05T03:27:33;14.32;;;8.07;;
76059;SDS011;64759;52.220;5.170;2023-04-05T03:30:12;15.10;;;7.63;;
76059;SDS011;64759;52.220;5.170;2023-04-05T03:32:43;17.10;;;8.75;;
76059;SDS011;64759;52.220;5.170;2023-04-05T03:35:36;15.27;;;8.32;;
76059;SDS011;64759;52.220;5.170;2023-04-05T03:38:05;14.57;;;7.90;;
76059;SDS011;64759;52.220;5.170;2023-04-05T03:40:32;18.52;;;9.15;;
76059;SDS011;64759;52.220;5.170;2023-04-05T03:42:58;13.90;;;8.20;;
76059;SDS011;64759;52.220;5.170;2023-04-05T03:45:25;13.18;;;8.48;;
76059;SDS011;64759;52.220;5.170;2023-04-05T03:47:51;18.58;;;9.40;;
76059;SDS011;64759;52.220;5.170;2023-04-05T03:50:19;15.27;;;9.02;;
76059;SDS011;64759;52.220;5.170;2023-04-05T03:52:45;14.05;;;8.18;;
76059;SDS011;64759;52.220;5.170;2023-04-05T03:55:11;15.20;;;8.20;;
76059;SDS011;64759;52.220;5.170;2023-04-05T03:57:39;15.52;;;8.13;;
76059;SDS011;64759;52.220;5.170;2023-04-05T04:00:19;18.85;;;8.43;;
76059;SDS011;64759;52.220;5.170;2023-04-05T04:03:00;17.42;;;9.73;;
76059;SDS011;64759;52.220;5.170;2023-04-05T04:05:26;13.63;;;8.02;;
76059;SDS011;64759;52.220;5.170;2023-04-05T04:07:52;14.68;;;8.88;;
76059;SDS011;64759;52.220;5.170;2023-04-05T04:10:19;14.02;;;8.55;;
76059;SDS011;64759;52.220;5.170;2023-04-05T04:12:48;16.60;;;9.27;;
76059;SDS011;64759;52.220;5.170;2023-04-05T04:15:17;18.30;;;8.40;;
76059;SDS011;64759;52.220;5.170;2023-04-05T04:17:58;20.33;;;9.23;;
76059;SDS011;64759;52.220;5.170;2023-04-05T04:20:46;17.67;;;8.82;;
76059;SDS011;64759;52.220;5.170;2023-04-05T04:23:26;18.77;;;8.75;;
76059;SDS011;64759;52.220;5.170;2023-04-05T04:26:21;18.58;;;9.05;;
76059;SDS011;64759;52.220;5.170;2023-04-05T04:29:12;17.50;;;9.48;;
76059;SDS011;64759;52.220;5.170;2023-04-05T04:31:58;18.70;;;9.77;;
76059;SDS011;64759;52.220;5.170;2023-04-05T04:37:49;15.95;;;9.18;;
76059;SDS011;64759;52.220;5.170;2023-04-05T04:40:32;15.20;;;9.05;;
76059;SDS011;64759;52.220;5.170;2023-04-05T04:43:24;16.50;;;9.77;;
76059;SDS011;64759;52.220;5.170;2023-04-05T04:46:32;17.88;;;9.10;;
76059;SDS011;64759;52.220;5.170;2023-04-05T04:49:13;17.20;;;9.13;;
76059;SDS011;64759;52.220;5.170;2023-04-05T04:51:45;14.75;;;9.00;;
76059;SDS011;64759;52.220;5.170;2023-04-05T04:54:11;16.83;;;9.10;;
76059;SDS011;64759;52.220;5.170;2023-04-05T04:56:37;20.77;;;9.63;;
76059;SDS011;64759;52.220;5.170;2023-04-05T04:59:02;17.63;;;8.70;;
76059;SDS011;64759;52.220;5.170;2023-04-05T05:01:28;13.82;;;8.30;;
76059;SDS011;64759;52.220;5.170;2023-04-05T05:03:53;19.30;;;9.27;;
76059;SDS011;64759;52.220;5.170;2023-04-05T05:06:30;18.40;;;9.73;;
76059;SDS011;64759;52.220;5.170;2023-04-05T05:08:55;19.42;;;9.55;;
76059;SDS011;64759;52.220;5.170;2023-04-05T05:11:22;16.10;;;8.35;;
76059;SDS011;64759;52.220;5.170;2023-04-05T05:13:48;16.25;;;8.93;;
76059;SDS011;64759;52.220;5.170;2023-04-05T05:16:19;15.82;;;9.40;;
76059;SDS011;64759;52.220;5.170;2023-04-05T05:18:46;18.85;;;9.13;;
76059;SDS011;64759;52.220;5.170;2023-04-05T05:21:12;17.10;;;8.73;;
76059;SDS011;64759;52.220;5.170;2023-04-05T05:23:38;15.40;;;9.20;;
76059;SDS011;64759;52.220;5.170;2023-04-05T05:26:04;17.42;;;9.00;;
76059;SDS011;64759;52.220;5.170;2023-04-05T05:28:32;15.48;;;8.20;;
76059;SDS011;64759;52.220;5.170;2023-04-05T05:30:58;17.77;;;9.05;;
76059;SDS011;64759;52.220;5.170;2023-04-05T05:33:23;16.13;;;9.00;;
76059;SDS011;64759;52.220;5.170;2023-04-05T05:35:49;20.20;;;9.13;;
76059;SDS011;64759;52.220;5.170;2023-04-05T05:38:16;30.65;;;9.93;;
76059;SDS011;64759;52.220;5.170;2023-04-05T05:40:41;19.88;;;8.52;;
76059;SDS011;64759;52.220;5.170;2023-04-05T05:43:07;18.23;;;10.25;;
76059;SDS011;64759;52.220;5.170;2023-04-05T05:45:34;20.00;;;9.43;;
76059;SDS011;64759;52.220;5.170;2023-04-05T05:48:00;15.95;;;8.73;;
76059;SDS011;64759;52.220;5.170;2023-04-05T05:50:26;16.10;;;9.38;;
76059;SDS011;64759;52.220;5.170;2023-04-05T05:52:51;17.70;;;9.57;;
76059;SDS011;64759;52.220;5.170;2023-04-05T05:55:17;18.20;;;9.43;;
76059;SDS011;64759;52.220;5.170;2023-04-05T05:57:42;18.52;;;9.57;;
76059;SDS011;64759;52.220;5.170;2023-04-05T06:00:08;15.65;;;10.23;;
76059;SDS011;64759;52.220;5.170;2023-04-05T06:02:36;21.55;;;9.05;;
76059;SDS011;64759;52.220;5.170;2023-04-05T06:05:03;18.05;;;9.20;;
76059;SDS011;64759;52.220;5.170;2023-04-05T06:07:29;16.45;;;9.55;;
76059;SDS011;64759;52.220;5.170;2023-04-05T06:09:55;19.20;;;9.93;;
76059;SDS011;64759;52.220;5.170;2023-04-05T06:12:20;19.95;;;10.30;;
76059;SDS011;64759;52.220;5.170;2023-04-05T06:14:46;17.90;;;10.13;;
76059;SDS011;64759;52.220;5.170;2023-04-05T06:17:11;25.27;;;9.68;;
76059;SDS011;64759;52.220;5.170;2023-04-05T06:19:36;19.40;;;8.70;;
76059;SDS011;64759;52.220;5.170;2023-04-05T06:22:05;21.60;;;9.30;;
76059;SDS011;64759;52.220;5.170;2023-04-05T06:24:30;18.58;;;9.55;;
76059;SDS011;64759;52.220;5.170;2023-04-05T06:26:59;13.38;;;9.32;;
76059;SDS011;64759;52.220;5.170;2023-04-05T06:29:25;12.30;;;8.02;;
76059;SDS011;64759;52.220;5.170;2023-04-05T06:31:50;16.35;;;8.40;;
76059;SDS011;64759;52.220;5.170;2023-04-05T06:34:16;14.95;;;8.30;;
76059;SDS011;64759;52.220;5.170;2023-04-05T06:36:42;16.77;;;9.80;;
76059;SDS011;64759;52.220;5.170;2023-04-05T06:39:07;20.45;;;10.50;;
76059;SDS011;64759;52.220;5.170;2023-04-05T06:41:33;16.33;;;9.65;;
76059;SDS011;64759;52.220;5.170;2023-04-05T06:43:58;15.20;;;8.23;;
76059;SDS011;64759;52.220;5.170;2023-04-05T06:46:24;16.30;;;9.02;;
76059;SDS011;64759;52.220;5.170;2023-04-05T06:48:50;16.30;;;8.70;;
76059;SDS011;64759;52.220;5.170;2023-04-05T06:51:16;16.40;;;8.00;;
76059;SDS011;64759;52.220;5.170;2023-04-05T06:53:42;15.00;;;8.82;;
76059;SDS011;64759;52.220;5.170;2023-04-05T06:56:07;12.73;;;8.05;;
76059;SDS011;64759;52.220;5.170;2023-04-05T06:58:33;19.73;;;8.15;;
76059;SDS011;64759;52.220;5.170;2023-04-05T07:00:59;21.30;;;8.63;;
76059;SDS011;64759;52.220;5.170;2023-04-05T07:03:25;19.17;;;7.75;;
76059;SDS011;64759;52.220;5.170;2023-04-05T07:08:23;18.02;;;7.82;;
76059;SDS011;64759;52.220;5.170;2023-04-05T07:10:50;18.92;;;8.65;;
76059;SDS011;64759;52.220;5.170;2023-04-05T07:13:16;16.30;;;7.95;;
76059;SDS011;64759;52.220;5.170;2023-04-05T07:15:42;14.20;;;7.50;;
76059;SDS011;64759;52.220;5.170;2023-04-05T07:18:08;17.30;;;7.90;;
76059;SDS011;64759;52.220;5.170;2023-04-05T07:20:34;13.70;;;7.80;;
76059;SDS011;64759;52.220;5.170;2023-04-05T07:22:59;18.42;;;7.95;;
76059;SDS011;64759;52.220;5.170;2023-04-05T07:25:25;13.00;;;7.60;;
76059;SDS011;64759;52.220;5.170;2023-04-05T07:27:50;12.88;;;7.38;;
76059;SDS011;64759;52.220;5.170;2023-04-05T07:30:16;9.68;;;6.65;;
76059;SDS011;64759;52.220;5.170;2023-04-05T07:32:42;14.95;;;7.57;;
76059;SDS011;64759;52.220;5.170;2023-04-05T07:35:07;26.05;;;8.23;;
76059;SDS011;64759;52.220;5.170;2023-04-05T07:37:33;8.15;;;6.13;;
76059;SDS011;64759;52.220;5.170;2023-04-05T07:39:58;12.75;;;7.43;;
76059;SDS011;64759;52.220;5.170;2023-04-05T07:42:24;10.98;;;7.07;;
76059;SDS011;64759;52.220;5.170;2023-04-05T07:44:51;13.60;;;7.78;;
76059;SDS011;64759;52.220;5.170;2023-04-05T07:47:17;12.95;;;7.70;;
76059;SDS011;64759;52.220;5.170;2023-04-05T07:49:42;10.88;;;6.80;;
76059;SDS011;64759;52.220;5.170;2023-04-05T07:52:08;12.00;;;6.20;;
76059;SDS011;64759;52.220;5.170;2023-04-05T07:54:33;8.40;;;6.00;;
76059;SDS011;64759;52.220;5.170;2023-04-05T07:56:59;9.15;;;6.35;;
76059;SDS011;64759;52.220;5.170;2023-04-05T07:59:25;10.88;;;6.10;;
76059;SDS011;64759;52.220;5.170;2023-04-05T08:01:51;14.38;;;6.25;;
76059;SDS011;64759;52.220;5.170;2023-04-05T08:04:17;9.13;;;5.45;;
76059;SDS011;64759;52.220;5.170;2023-04-05T08:06:44;10.65;;;5.70;;
76059;SDS011;64759;52.220;5.170;2023-04-05T08:09:10;10.57;;;5.78;;
76059;SDS011;64759;52.220;5.170;2023-04-05T08:11:37;11.40;;;5.63;;
76059;SDS011;64759;52.220;5.170;2023-04-05T08:14:03;7.57;;;5.25;;
76059;SDS011;64759;52.220;5.170;2023-04-05T08:16:28;8.75;;;4.72;;
76059;SDS011;64759;52.220;5.170;2023-04-05T08:18:54;8.40;;;4.32;;
76059;SDS011;64759;52.220;5.170;2023-04-05T08:21:19;8.55;;;4.95;;
76059;SDS011;64759;52.220;5.170;2023-04-05T08:23:46;8.70;;;5.00;;
76059;SDS011;64759;52.220;5.170;2023-04-05T08:26:11;9.77;;;5.40;;
76059;SDS011;64759;52.220;5.170;2023-04-05T08:28:38;8.52;;;4.57;;
76059;SDS011;64759;52.220;5.170;2023-04-05T08:31:04;13.73;;;6.57;;
76059;SDS011;64759;52.220;5.170;2023-04-05T08:33:29;8.27;;;5.50;;
76059;SDS011;64759;52.220;5.170;2023-04-05T08:35:56;9.23;;;4.97;;
76059;SDS011;64759;52.220;5.170;2023-04-05T08:38:22;4.20;;;3.80;;
76059;SDS011;64759;52.220;5.170;2023-04-05T08:40:48;6.88;;;4.30;;
76059;SDS011;64759;52.220;5.170;2023-04-05T08:43:16;7.30;;;4.30;;
76059;SDS011;64759;52.220;5.170;2023-04-05T08:45:50;11.05;;;4.65;;
76059;SDS011;64759;52.220;5.170;2023-04-05T08:48:16;7.20;;;3.65;;
76059;SDS011;64759;52.220;5.170;2023-04-05T08:50:52;12.35;;;5.38;;
76059;SDS011;64759;52.220;5.170;2023-04-05T08:53:20;6.47;;;4.35;;
76059;SDS011;64759;52.220;5.170;2023-04-05T08:55:50;6.57;;;4.53;;
76059;SDS011;64759;52.220;5.170;2023-04-05T08:58:17;7.07;;;3.85;;
76059;SDS011;64759;52.220;5.170;2023-04-05T09:00:46;7.13;;;4.38;;
76059;SDS011;64759;52.220;5.170;2023-04-05T09:03:14;9.60;;;4.18;;
76059;SDS011;64759;52.220;5.170;2023-04-05T09:05:45;6.95;;;4.40;;
76059;SDS011;64759;52.220;5.170;2023-04-05T09:08:13;32.92;;;5.18;;
76059;SDS011;64759;52.220;5.170;2023-04-05T09:10:39;8.82;;;4.80;;
76059;SDS011;64759;52.220;5.170;2023-04-05T09:13:05;8.35;;;4.53;;
76059;SDS011;64759;52.220;5.170;2023-04-05T09:15:30;9.02;;;4.78;;
76059;SDS011;64759;52.220;5.170;2023-04-05T09:17:58;12.02;;;5.70;;
76059;SDS011;64759;52.220;5.170;2023-04-05T09:20:23;10.98;;;5.50;;
76059;SDS011;64759;52.220;5.170;2023-04-05T09:22:49;14.95;;;5.22;;
76059;SDS011;64759;52.220;5.170;2023-04-05T09:28:00;7.82;;;5.63;;
76059;SDS011;64759;52.220;5.170;2023-04-05T09:30:29;9.60;;;5.60;;
76059;SDS011;64759;52.220;5.170;2023-04-05T09:32:55;14.48;;;5.18;;
76059;SDS011;64759;52.220;5.170;2023-04-05T09:35:21;7.68;;;4.93;;
76059;SDS011;64759;52.220;5.170;2023-04-05T09:37:52;7.25;;;4.75;;
76059;SDS011;64759;52.220;5.170;2023-04-05T09:40:23;9.23;;;4.18;;
76059;SDS011;64759;52.220;5.170;2023-04-05T09:43:06;10.88;;;5.78;;
76059;SDS011;64759;52.220;5.170;2023-04-05T09:45:37;9.93;;;5.90;;
76059;SDS011;64759;52.220;5.170;2023-04-05T09:48:04;8.07;;;4.60;;
76059;SDS011;64759;52.220;5.170;2023-04-05T09:50:29;7.78;;;4.63;;
76059;SDS011;64759;52.220;5.170;2023-04-05T09:53:07;7.65;;;5.55;;
76059;SDS011;64759;52.220;5.170;2023-04-05T09:55:34;10.80;;;5.03;;
76059;SDS011;64759;52.220;5.170;2023-04-05T09:58:01;8.63;;;5.38;;
76059;SDS011;64759;52.220;5.170;2023-04-05T10:00:28;6.47;;;4.45;;
76059;SDS011;64759;52.220;5.170;2023-04-05T10:02:55;7.03;;;4.93;;
76059;SDS011;64759;52.220;5.170;2023-04-05T10:05:25;14.30;;;5.15;;
76059;SDS011;64759;52.220;5.170;2023-04-05T10:07:52;10.93;;;5.43;;
76059;SDS011;64759;52.220;5.170;2023-04-05T10:10:20;9.30;;;5.90;;
76059;SDS011;64759;52.220;5.170;2023-04-05T10:12:46;6.13;;;4.60;;
76059;SDS011;64759;52.220;5.170;2023-04-05T10:15:13;10.38;;;4.38;;
76059;SDS011;64759;52.220;5.170;2023-04-05T10:17:57;7.60;;;4.97;;
76059;SDS011;64759;52.220;5.170;2023-04-05T10:20:42;8.63;;;5.80;;
76059;SDS011;64759;52.220;5.170;2023-04-05T10:23:12;6.80;;;5.05;;
76059;SDS011;64759;52.220;5.170;2023-04-05T10:28:19;7.97;;;4.72;;
76059;SDS011;64759;52.220;5.170;2023-04-05T10:31:03;9.18;;;5.03;;
76059;SDS011;64759;52.220;5.170;2023-04-05T10:39:12;10.07;;;5.63;;
76059;SDS011;64759;52.220;5.170;2023-04-05T10:41:46;10.07;;;5.15;;
76059;SDS011;64759;52.220;5.170;2023-04-05T10:44:14;7.03;;;5.13;;
76059;SDS011;64759;52.220;5.170;2023-04-05T10:46:40;28.85;;;6.40;;
76059;SDS011;64759;52.220;5.170;2023-04-05T10:49:18;12.32;;;5.10;;
76059;SDS011;64759;52.220;5.170;2023-04-05T10:52:04;7.65;;;5.10;;
76059;SDS011;64759;52.220;5.170;2023-04-05T10:54:34;10.18;;;5.60;;
76059;SDS011;64759;52.220;5.170;2023-04-05T10:57:04;10.18;;;6.05;;
76059;SDS011;64759;52.220;5.170;2023-04-05T10:59:31;8.75;;;5.13;;
76059;SDS011;64759;52.220;5.170;2023-04-05T11:01:58;10.45;;;5.20;;
76059;SDS011;64759;52.220;5.170;2023-04-05T11:04:24;9.05;;;5.10;;
76059;SDS011;64759;52.220;5.170;2023-04-05T11:07:32;8.20;;;5.13;;
76059;SDS011;64759;52.220;5.170;2023-04-05T11:09:54;11.45;;;5.00;;
76059;SDS011;64759;52.220;5.170;2023-04-05T11:15:28;9.73;;;5.47;;
76059;SDS011;64759;52.220;5.170;2023-04-05T11:18:09;10.20;;;5.57;;
76059;SDS011;64759;52.220;5.170;2023-04-05T11:20:50;9.80;;;5.38;;
76059;SDS011;64759;52.220;5.170;2023-04-05T11:23:29;6.47;;;4.45;;
76059;SDS011;64759;52.220;5.170;2023-04-05T11:26:04;8.15;;;5.28;;
76059;SDS011;64759;52.220;5.170;2023-04-05T11:28:37;10.95;;;5.40;;
76059;SDS011;64759;52.220;5.170;2023-04-05T11:31:14;10.45;;;6.35;;
76059;SDS011;64759;52.220;5.170;2023-04-05T11:36:09;7.93;;;5.72;;
76059;SDS011;64759;52.220;5.170;2023-04-05T11:38:35;10.10;;;5.63;;
76059;SDS011;64759;52.220;5.170;2023-04-05T11:41:14;14.38;;;6.65;;
76059;SDS011;64759;52.220;5.170;2023-04-05T11:43:45;10.48;;;6.25;;
76059;SDS011;64759;52.220;5.170;2023-04-05T11:46:14;9.25;;;5.80;;
76059;SDS011;64759;52.220;5.170;2023-04-05T11:48:40;8.02;;;5.50;;
76059;SDS011;64759;52.220;5.170;2023-04-05T11:51:09;10.80;;;6.38;;
76059;SDS011;64759;52.220;5.170;2023-04-05T11:53:35;8.93;;;5.72;;
76059;SDS011;64759;52.220;5.170;2023-04-05T11:56:08;7.72;;;5.80;;
76059;SDS011;64759;52.220;5.170;2023-04-05T11:58:36;6.55;;;5.43;;
76059;SDS011;64759;52.220;5.170;2023-04-05T12:01:03;10.02;;;5.43;;
76059;SDS011;64759;52.220;5.170;2023-04-05T12:03:31;12.13;;;5.67;;
76059;SDS011;64759;52.220;5.170;2023-04-05T12:05:57;8.85;;;5.50;;
76059;SDS011;64759;52.220;5.170;2023-04-05T12:08:36;8.95;;;6.25;;
76059;SDS011;64759;52.220;5.170;2023-04-05T12:11:05;8.48;;;6.10;;
76059;SDS011;64759;52.220;5.170;2023-04-05T12:13:32;7.30;;;5.80;;
76059;SDS011;64759;52.220;5.170;2023-04-05T12:16:01;8.07;;;5.90;;
76059;SDS011;64759;52.220;5.170;2023-04-05T12:18:29;9.85;;;5.63;;
76059;SDS011;64759;52.220;5.170;2023-04-05T12:20:56;12.18;;;6.03;;
76059;SDS011;64759;52.220;5.170;2023-04-05T12:23:22;11.32;;;6.10;;
76059;SDS011;64759;52.220;5.170;2023-04-05T12:25:48;8.70;;;5.68;;
76059;SDS011;64759;52.220;5.170;2023-04-05T12:28:15;11.05;;;6.47;;
76059;SDS011;64759;52.220;5.170;2023-04-05T12:30:53;11.60;;;5.65;;
76059;SDS011;64759;52.220;5.170;2023-04-05T12:33:26;7.22;;;5.65;;
76059;SDS011;64759;52.220;5.170;2023-04-05T12:38:18;6.40;;;5.38;;
76059;SDS011;64759;52.220;5.170;2023-04-05T12:40:43;8.68;;;5.43;;
76059;SDS011;64759;52.220;5.170;2023-04-05T12:43:09;8.50;;;5.80;;
76059;SDS011;64759;52.220;5.170;2023-04-05T12:45:35;7.93;;;5.63;;
76059;SDS011;64759;52.220;5.170;2023-04-05T12:48:09;12.65;;;6.05;;
76059;SDS011;64759;52.220;5.170;2023-04-05T12:50:40;7.85;;;5.65;;
76059;SDS011;64759;52.220;5.170;2023-04-05T12:53:08;11.27;;;5.93;;
76059;SDS011;64759;52.220;5.170;2023-04-05T12:55:42;15.18;;;5.95;;
76059;SDS011;64759;52.220;5.170;2023-04-05T12:58:10;9.18;;;5.88;;
76059;SDS011;64759;52.220;5.170;2023-04-05T13:00:35;11.18;;;6.03;;
76059;SDS011;64759;52.220;5.170;2023-04-05T13:03:01;8.07;;;6.18;;
76059;SDS011;64759;52.220;5.170;2023-04-05T13:05:27;7.93;;;5.93;;
76059;SDS011;64759;52.220;5.170;2023-04-05T13:07:53;14.25;;;6.43;;
76059;SDS011;64759;52.220;5.170;2023-04-05T13:10:19;10.55;;;6.78;;
76059;SDS011;64759;52.220;5.170;2023-04-05T13:12:46;8.65;;;6.47;;
76059;SDS011;64759;52.220;5.170;2023-04-05T13:15:13;8.50;;;6.22;;
76059;SDS011;64759;52.220;5.170;2023-04-05T13:17:42;11.40;;;6.40;;
76059;SDS011;64759;52.220;5.170;2023-04-05T13:20:13;7.22;;;5.60;;
76059;SDS011;64759;52.220;5.170;2023-04-05T13:22:41;8.48;;;6.72;;
76059;SDS011;64759;52.220;5.170;2023-04-05T13:25:07;8.63;;;6.68;;
76059;SDS011;64759;52.220;5.170;2023-04-05T13:27:33;13.18;;;6.70;;
76059;SDS011;64759;52.220;5.170;2023-04-05T13:29:58;11.18;;;6.90;;
76059;SDS011;64759;52.220;5.170;2023-04-05T13:32:24;10.40;;;6.60;;
76059;SDS011;64759;52.220;5.170;2023-04-05T13:34:49;10.27;;;5.88;;
76059;SDS011;64759;52.220;5.170;2023-04-05T13:37:15;9.07;;;6.40;;
76059;SDS011;64759;52.220;5.170;2023-04-05T13:39:40;8.73;;;6.78;;
76059;SDS011;64759;52.220;5.170;2023-04-05T13:42:06;11.23;;;6.25;;
76059;SDS011;64759;52.220;5.170;2023-04-05T13:44:31;9.75;;;6.97;;
76059;SDS011;64759;52.220;5.170;2023-04-05T13:46:58;10.65;;;6.72;;
76059;SDS011;64759;52.220;5.170;2023-04-05T13:49:23;8.85;;;6.68;;
76059;SDS011;64759;52.220;5.170;2023-04-05T13:51:49;11.82;;;6.65;;
76059;SDS011;64759;52.220;5.170;2023-04-05T13:54:14;9.07;;;6.55;;
76059;SDS011;64759;52.220;5.170;2023-04-05T13:56:40;9.18;;;6.90;;
76059;SDS011;64759;52.220;5.170;2023-04-05T13:59:05;9.48;;;6.82;;
76059;SDS011;64759;52.220;5.170;2023-04-05T14:01:34;13.02;;;6.72;;
76059;SDS011;64759;52.220;5.170;2023-04-05T14:04:00;9.33;;;6.67;;
76059;SDS011;64759;52.220;5.170;2023-04-05T14:06:25;10.00;;;6.10;;
76059;SDS011;64759;52.220;5.170;2023-04-05T14:08:51;13.73;;;7.28;;
76059;SDS011;64759;52.220;5.170;2023-04-05T14:11:22;11.57;;;7.25;;
76059;SDS011;64759;52.220;5.170;2023-04-05T14:13:51;10.43;;;6.22;;
76059;SDS011;64759;52.220;5.170;2023-04-05T14:16:16;10.40;;;6.85;;
76059;SDS011;64759;52.220;5.170;2023-04-05T14:18:42;10.18;;;6.55;;
76059;SDS011;64759;52.220;5.170;2023-04-05T14:21:07;15.55;;;6.78;;
76059;SDS011;64759;52.220;5.170;2023-04-05T14:23:32;11.25;;;6.65;;
76059;SDS011;64759;52.220;5.170;2023-04-05T14:25:58;9.48;;;6.85;;
76059;SDS011;64759;52.220;5.170;2023-04-05T14:28:24;10.63;;;7.30;;
76059;SDS011;64759;52.220;5.170;2023-04-05T14:30:49;10.45;;;6.93;;
76059;SDS011;64759;52.220;5.170;2023-04-05T14:33:14;14.10;;;7.25;;
76059;SDS011;64759;52.220;5.170;2023-04-05T14:35:41;18.13;;;7.82;;
76059;SDS011;64759;52.220;5.170;2023-04-05T14:38:08;10.48;;;6.63;;
76059;SDS011;64759;52.220;5.170;2023-04-05T14:40:33;9.32;;;6.07;;
76059;SDS011;64759;52.220;5.170;2023-04-05T14:42:59;13.52;;;7.15;;
76059;SDS011;64759;52.220;5.170;2023-04-05T14:45:26;9.30;;;6.78;;
76059;SDS011;64759;52.220;5.170;2023-04-05T14:47:52;10.15;;;6.90;;
76059;SDS011;64759;52.220;5.170;2023-04-05T14:50:18;10.88;;;7.10;;
76059;SDS011;64759;52.220;5.170;2023-04-05T14:52:44;11.65;;;6.78;;
76059;SDS011;64759;52.220;5.170;2023-04-05T14:55:10;12.07;;;7.15;;
76059;SDS011;64759;52.220;5.170;2023-04-05T14:57:40;11.10;;;6.57;;
76059;SDS011;64759;52.220;5.170;2023-04-05T15:00:08;6.95;;;6.13;;
76059;SDS011;64759;52.220;5.170;2023-04-05T15:02:37;10.60;;;7.18;;
76059;SDS011;64759;52.220;5.170;2023-04-05T15:05:04;8.40;;;6.68;;
76059;SDS011;64759;52.220;5.170;2023-04-05T15:07:30;8.95;;;6.60;;
76059;SDS011;64759;52.220;5.170;2023-04-05T15:09:56;10.82;;;7.38;;
76059;SDS011;64759;52.220;5.170;2023-04-05T15:12:21;12.35;;;7.22;;
76059;SDS011;64759;52.220;5.170;2023-04-05T15:14:47;9.95;;;6.75;;
76059;SDS011;64759;52.220;5.170;2023-04-05T15:17:14;9.80;;;6.65;;
76059;SDS011;64759;52.220;5.170;2023-04-05T15:19:42;13.13;;;7.30;;
76059;SDS011;64759;52.220;5.170;2023-04-05T15:22:07;11.60;;;7.38;;